createdAt,value
2023-02-08T00:02:19.343Z,-1.77
2023-02-08T00:04:51.613Z,-1.79
2023-02-08T00:07:20.603Z,-1.78
2023-02-08T00:09:51.238Z,-1.80
2023-02-08T00:12:20.781Z,-1.74
2023-02-08T00:14:51.190Z,-1.74
2023-02-08T00:17:21.277Z,-1.79
2023-02-08T00:19:52.069Z,-1.84
2023-02-08T00:22:21.717Z,-1.86
2023-02-08T00:24:53.190Z,-1.90
2023-02-08T00:27:24.352Z,-1.87
2023-02-08T00:29:53.744Z,-1.89
2023-02-08T00:32:23.821Z,-1.89
2023-02-08T00:34:55.206Z,-1.92
2023-02-08T00:37:24.658Z,-1.87
2023-02-08T00:39:55.142Z,-1.96
2023-02-08T00:42:24.488Z,-1.93
2023-02-08T00:44:54.371Z,-1.95
2023-02-08T00:47:23.538Z,-1.93
2023-02-08T00:49:53.796Z,-1.94
2023-02-08T00:52:23.594Z,-2.03
2023-02-08T00:54:53.057Z,-2.15
2023-02-08T00:57:23.548Z,-2.09
2023-02-08T00:59:54.434Z,-2.04
2023-02-08T01:02:25.449Z,-2.12
2023-02-08T01:04:56.228Z,-2.21
2023-02-08T01:07:25.798Z,-2.22
2023-02-08T01:09:55.325Z,-2.19
2023-02-08T01:12:24.985Z,-2.19
2023-02-08T01:14:54.525Z,-2.18
2023-02-08T01:17:23.387Z,-2.21
2023-02-08T01:19:52.640Z,-2.29
2023-02-08T01:22:23.413Z,-2.32
2023-02-08T01:24:52.306Z,-2.36
2023-02-08T01:27:21.550Z,-2.33
2023-02-08T01:29:51.496Z,-2.26
2023-02-08T01:32:22.650Z,-2.24
2023-02-08T01:34:52.130Z,-2.35
2023-02-08T01:37:23.870Z,-2.38
2023-02-08T01:39:53.343Z,-2.31
2023-02-08T01:42:23.615Z,-2.34
2023-02-08T01:45:34.771Z,-2.42
2023-02-08T01:48:09.978Z,-2.41
2023-02-08T01:50:56.752Z,-2.40
2023-02-08T01:53:31.021Z,-2.41
2023-02-08T01:56:05.414Z,-2.40
2023-02-08T01:58:39.820Z,-2.44
2023-02-08T02:01:09.277Z,-2.47
2023-02-08T02:03:39.669Z,-2.44
2023-02-08T02:06:16.943Z,-2.45
2023-02-08T02:08:58.425Z,-2.39
2023-02-08T02:11:28.655Z,-2.38
2023-02-08T02:13:57.540Z,-2.42
2023-02-08T02:16:27.073Z,-2.44
2023-02-08T02:18:56.874Z,-2.43
2023-02-08T02:22:21.959Z,-2.45
2023-02-08T02:25:42.260Z,-2.45
2023-02-08T02:28:52.872Z,-2.48
2023-02-08T02:32:13.898Z,-2.47
2023-02-08T02:34:53.333Z,-2.62
2023-02-08T02:37:41.686Z,-2.65
2023-02-08T02:40:23.271Z,-2.68
2023-02-08T02:43:23.868Z,-2.64
2023-02-08T02:46:07.050Z,-2.60
2023-02-08T02:48:48.477Z,-2.56
2023-02-08T02:51:26.737Z,-2.61
2023-02-08T02:54:04.502Z,-2.65
2023-02-08T02:56:40.974Z,-2.69
2023-02-08T02:59:13.880Z,-2.75
2023-02-08T03:01:45.244Z,-2.77
2023-02-08T03:04:18.647Z,-2.70
2023-02-08T03:07:07.072Z,-2.68
2023-02-08T03:10:05.435Z,-2.69
2023-02-08T03:12:52.018Z,-2.83
2023-02-08T03:15:37.915Z,-2.85
2023-02-08T03:18:26.870Z,-2.85
2023-02-08T03:21:11.721Z,-2.84
2023-02-08T03:23:51.838Z,-2.93
2023-02-08T03:26:32.873Z,-2.92
2023-02-08T03:29:14.068Z,-2.90
2023-02-08T03:31:54.893Z,-2.90
2023-02-08T03:34:37.786Z,-2.95
2023-02-08T03:37:14.739Z,-2.94
2023-02-08T03:39:48.650Z,-2.97
2023-02-08T03:42:27.456Z,-2.93
2023-02-08T03:45:03.391Z,-2.89
2023-02-08T03:47:38.792Z,-2.98
2023-02-08T03:50:14.547Z,-3.07
2023-02-08T03:52:49.427Z,-2.99
2023-02-08T03:55:24.925Z,-2.96
2023-02-08T03:58:00.304Z,-2.97
2023-02-08T04:00:35.121Z,-2.92
2023-02-08T04:03:13.201Z,-2.94
2023-02-08T04:05:43.776Z,-2.93
2023-02-08T04:08:15.229Z,-2.96
2023-02-08T04:10:45.503Z,-2.93
2023-02-08T04:13:14.542Z,-2.95
2023-02-08T04:15:45.644Z,-3.10
2023-02-08T04:18:16.474Z,-3.16
2023-02-08T04:20:47.115Z,-3.09
2023-02-08T04:23:18.496Z,-3.13
2023-02-08T04:25:50.690Z,-3.17
2023-02-08T04:28:21.155Z,-3.09
2023-02-08T04:30:51.271Z,-3.06
2023-02-08T04:33:21.812Z,-3.19
2023-02-08T04:35:52.173Z,-3.14
2023-02-08T04:38:24.642Z,-3.17
2023-02-08T04:40:53.665Z,-3.23
2023-02-08T04:43:23.650Z,-3.17
2023-02-08T04:45:54.128Z,-3.21
2023-02-08T04:48:24.023Z,-3.21
2023-02-08T04:50:58.188Z,-3.22
2023-02-08T04:53:29.631Z,-3.24
2023-02-08T04:55:59.630Z,-3.29
2023-02-08T04:58:29.628Z,-3.35
2023-02-08T05:01:00.130Z,-3.26
2023-02-08T05:03:30.644Z,-3.31
2023-02-08T05:06:01.275Z,-3.34
2023-02-08T05:08:31.536Z,-3.33
2023-02-08T05:11:01.445Z,-3.36
2023-02-08T05:13:31.076Z,-3.28
2023-02-08T05:16:00.791Z,-3.27
2023-02-08T05:18:29.892Z,-3.28
2023-02-08T05:21:00.622Z,-3.20
2023-02-08T05:23:32.185Z,-3.14
2023-02-08T05:26:01.139Z,-3.17
2023-02-08T05:28:31.016Z,-3.18
2023-02-08T05:31:01.093Z,-3.19
2023-02-08T05:33:31.763Z,-3.20
2023-02-08T05:36:03.203Z,-3.16
2023-02-08T05:38:35.928Z,-3.17
2023-02-08T05:41:05.415Z,-3.25
2023-02-08T05:43:35.188Z,-3.30
2023-02-08T05:46:04.746Z,-3.34
2023-02-08T05:48:34.623Z,-3.36
2023-02-08T05:51:05.202Z,-3.35
2023-02-08T05:53:37.504Z,-3.43
2023-02-08T05:56:09.011Z,-3.48
2023-02-08T05:58:39.490Z,-3.43
2023-02-08T06:01:12.018Z,-3.39
2023-02-08T06:03:43.166Z,-3.50
2023-02-08T06:06:13.129Z,-3.56
2023-02-08T06:08:44.438Z,-3.59
2023-02-08T06:11:13.982Z,-3.53
2023-02-08T06:13:43.414Z,-3.51
2023-02-08T06:16:13.426Z,-3.57
2023-02-08T06:18:43.995Z,-3.62
2023-02-08T06:21:14.077Z,-3.63
2023-02-08T06:23:46.108Z,-3.59
2023-02-08T06:26:16.918Z,-3.54
2023-02-08T06:28:46.499Z,-3.54
2023-02-08T06:31:16.417Z,-3.63
2023-02-08T06:33:44.806Z,-3.63
2023-02-08T06:36:14.708Z,-3.64
2023-02-08T06:38:45.821Z,-3.66
2023-02-08T06:41:14.355Z,-3.63
2023-02-08T06:43:44.313Z,-3.67
2023-02-08T06:46:14.702Z,-3.65
2023-02-08T06:48:44.620Z,-3.64
2023-02-08T06:51:15.089Z,-3.68
2023-02-08T06:53:46.456Z,-3.70
2023-02-08T06:56:16.309Z,-3.66
2023-02-08T06:58:46.751Z,-3.65
2023-02-08T07:01:16.484Z,-3.70
2023-02-08T07:03:47.462Z,-3.69
2023-02-08T07:06:19.562Z,-3.65
2023-02-08T07:08:51.973Z,-3.71
2023-02-08T07:11:22.898Z,-3.73
2023-02-08T07:13:55.204Z,-3.72
2023-02-08T07:16:27.073Z,-3.73
2023-02-08T07:18:57.689Z,-3.78
2023-02-08T07:21:28.191Z,-3.74
2023-02-08T07:23:59.625Z,-3.74
2023-02-08T07:26:29.863Z,-3.71
2023-02-08T07:29:00.025Z,-3.71
2023-02-08T07:31:29.586Z,-3.70
2023-02-08T07:34:00.852Z,-3.66
2023-02-08T07:36:30.361Z,-3.62
2023-02-08T07:39:02.028Z,-3.61
2023-02-08T07:41:32.045Z,-3.62
2023-02-08T07:44:02.076Z,-3.60
2023-02-08T07:46:31.543Z,-3.61
2023-02-08T07:49:01.795Z,-3.58
2023-02-08T07:51:31.936Z,-3.54
2023-02-08T07:54:02.231Z,-3.54
2023-02-08T07:56:31.903Z,-3.52
2023-02-08T07:59:01.566Z,-3.48
2023-02-08T08:01:31.655Z,-3.50
2023-02-08T08:04:01.052Z,-3.46
2023-02-08T08:06:32.132Z,-3.46
2023-02-08T08:09:03.758Z,-3.42
2023-02-08T08:11:34.601Z,-3.38
2023-02-08T08:14:04.052Z,-3.33
2023-02-08T08:16:34.569Z,-3.31
2023-02-08T08:19:04.531Z,-3.27
2023-02-08T08:21:35.072Z,-3.27
2023-02-08T08:24:07.519Z,-3.23
2023-02-08T08:26:37.507Z,-3.20
2023-02-08T08:29:08.116Z,-3.17
2023-02-08T08:31:39.285Z,-3.13
2023-02-08T08:34:08.654Z,-3.07
2023-02-08T08:36:38.717Z,-3.03
2023-02-08T08:39:10.131Z,-2.98
2023-02-08T08:41:39.782Z,-2.88
2023-02-08T08:44:09.393Z,-2.79
2023-02-08T08:46:38.382Z,-2.67
2023-02-08T08:49:07.326Z,-2.59
2023-02-08T08:51:38.021Z,-2.53
2023-02-08T08:54:09.056Z,-2.44
2023-02-08T08:56:38.721Z,-2.39
2023-02-08T08:59:09.784Z,-2.32
2023-02-08T09:01:42.333Z,-2.24
2023-02-08T09:04:12.474Z,-2.19
2023-02-08T09:06:42.627Z,-2.10
2023-02-08T09:09:14.533Z,-2.03
2023-02-08T09:11:44.277Z,-1.93
2023-02-08T09:14:15.175Z,-1.86
2023-02-08T09:16:48.109Z,-1.81
2023-02-08T09:19:17.570Z,-1.76
2023-02-08T09:21:47.792Z,-1.70
2023-02-08T09:24:18.345Z,-1.66
2023-02-08T09:26:48.280Z,-1.61
2023-02-08T09:29:17.751Z,-1.60
2023-02-08T09:31:46.785Z,-1.54
2023-02-08T09:34:15.850Z,-1.52
2023-02-08T09:36:44.800Z,-1.48
2023-02-08T09:39:19.370Z,-1.43
2023-02-08T09:42:15.158Z,-1.40
2023-02-08T09:45:06.762Z,-1.36
2023-02-08T09:47:38.924Z,-1.31
2023-02-08T09:50:19.276Z,-1.26
2023-02-08T09:53:02.512Z,-1.22
2023-02-08T09:55:40.142Z,-1.20
2023-02-08T09:58:25.954Z,-1.15
2023-02-08T10:00:57.126Z,-1.09
2023-02-08T10:03:38.412Z,-1.05
2023-02-08T10:06:11.547Z,-1.03
2023-02-08T10:08:43.147Z,-0.98
2023-02-08T10:12:06.350Z,-0.94
2023-02-08T10:14:57.127Z,-0.90
2023-02-08T10:18:08.787Z,-0.86
2023-02-08T10:20:57.728Z,-0.81
2023-02-08T10:23:49.003Z,-0.75
2023-02-08T10:26:33.050Z,-0.70
2023-02-08T10:29:41.865Z,-0.65
2023-02-08T10:32:35.953Z,-0.61
2023-02-08T10:35:13.997Z,-0.54
2023-02-08T10:37:46.416Z,-0.47
2023-02-08T10:40:33.508Z,-0.42
2023-02-08T10:43:21.602Z,-0.35
2023-02-08T10:45:58.470Z,-0.30
2023-02-08T10:48:45.528Z,-0.26
2023-02-08T10:51:21.564Z,-0.22
2023-02-08T10:53:52.375Z,-0.20
2023-02-08T10:56:49.308Z,-0.15
2023-02-08T10:59:28.756Z,-0.08
2023-02-08T11:01:59.351Z,0.00
2023-02-08T11:04:29.204Z,0.05
2023-02-08T11:06:59.402Z,0.12
2023-02-08T11:09:32.117Z,0.18
2023-02-08T11:12:04.366Z,0.23
2023-02-08T11:14:47.251Z,0.28
2023-02-08T11:17:38.683Z,0.35
2023-02-08T11:20:23.388Z,0.38
2023-02-08T11:22:52.602Z,0.45
2023-02-08T11:25:36.901Z,0.52
2023-02-08T11:28:08.662Z,0.56
2023-02-08T11:30:40.613Z,0.61
2023-02-08T11:33:20.408Z,0.65
2023-02-08T11:36:10.460Z,0.69
2023-02-08T11:38:44.286Z,0.72
2023-02-08T11:41:21.212Z,0.76
2023-02-08T11:44:03.889Z,0.78
2023-02-08T11:46:40.127Z,0.83
2023-02-08T11:49:23.595Z,0.86
2023-02-08T11:51:54.548Z,0.89
2023-02-08T11:54:42.029Z,0.93
2023-02-08T11:57:19.788Z,0.95
2023-02-08T11:59:51.778Z,0.98
2023-02-08T12:02:38.229Z,1.02
2023-02-08T12:05:16.617Z,1.06
2023-02-08T12:08:23.499Z,1.12
2023-02-08T12:11:10.354Z,1.13
2023-02-08T12:14:28.155Z,1.17
2023-02-08T12:17:55.801Z,1.23
2023-02-08T12:20:44.615Z,1.24
2023-02-08T12:23:50.404Z,1.27
2023-02-08T12:26:41.990Z,1.29
2023-02-08T12:29:46.868Z,1.33
2023-02-08T12:32:55.506Z,1.33
2023-02-08T12:36:04.218Z,1.35
2023-02-08T12:39:26.062Z,1.38
2023-02-08T12:42:30.152Z,1.39
2023-02-08T12:45:55.628Z,1.42
2023-02-08T12:49:20.889Z,1.45
2023-02-08T12:52:08.162Z,1.51
2023-02-08T12:54:46.387Z,1.58
2023-02-08T12:57:21.638Z,1.61
2023-02-08T12:59:57.686Z,1.64
2023-02-08T13:02:44.005Z,1.70
2023-02-08T13:05:21.918Z,1.77
2023-02-08T13:08:00.349Z,1.77
2023-02-08T13:10:38.258Z,1.79
2023-02-08T13:13:17.700Z,1.84
2023-02-08T13:15:53.726Z,1.87
2023-02-08T13:18:29.752Z,1.90
2023-02-08T13:21:07.608Z,1.92
2023-02-08T13:23:52.066Z,1.93
2023-02-08T13:26:27.368Z,1.92
2023-02-08T13:29:01.834Z,1.96
2023-02-08T13:31:39.911Z,2.01
2023-02-08T13:34:19.957Z,2.02
2023-02-08T13:36:58.058Z,2.04
2023-02-08T13:39:38.828Z,2.05
2023-02-08T13:42:22.616Z,2.07
2023-02-08T13:44:56.786Z,2.08
2023-02-08T13:47:30.996Z,2.10
2023-02-08T13:50:05.573Z,2.10
2023-02-08T13:52:54.275Z,2.10
2023-02-08T13:55:46.084Z,2.14
2023-02-08T13:58:56.150Z,2.10
2023-02-08T14:01:28.824Z,2.11
2023-02-08T14:04:29.013Z,2.14
2023-02-08T14:07:06.164Z,2.14
2023-02-08T14:09:55.268Z,2.14
2023-02-08T14:12:34.741Z,2.17
2023-02-08T14:15:28.319Z,2.16
2023-02-08T14:18:01.241Z,2.20
2023-02-08T14:20:36.500Z,2.21
2023-02-08T14:23:10.057Z,2.23
2023-02-08T14:25:48.506Z,2.26
2023-02-08T14:28:35.837Z,2.28
2023-02-08T14:31:09.516Z,2.30
2023-02-08T14:33:43.587Z,2.34
2023-02-08T14:36:31.178Z,2.38
2023-02-08T14:39:29.014Z,2.44
2023-02-08T14:42:03.897Z,2.51
2023-02-08T14:45:05.856Z,2.60
2023-02-08T14:48:18.422Z,2.66
2023-02-08T14:51:07.877Z,2.71
2023-02-08T14:53:45.941Z,2.76
2023-02-08T14:56:23.716Z,2.79
2023-02-08T14:58:59.240Z,2.83
2023-02-08T15:01:44.531Z,2.87
2023-02-08T15:04:15.408Z,2.90
2023-02-08T15:07:24.357Z,2.92
2023-02-08T15:09:55.102Z,2.93
2023-02-08T15:12:31.083Z,2.92
2023-02-08T15:15:05.476Z,2.92
2023-02-08T15:17:38.358Z,2.94
2023-02-08T15:20:20.236Z,2.96
2023-02-08T15:22:50.301Z,3.00
2023-02-08T15:25:28.280Z,2.97
2023-02-08T15:28:02.342Z,2.96
2023-02-08T15:30:57.206Z,2.91
2023-02-08T15:33:26.470Z,2.89
2023-02-08T15:36:01.803Z,2.87
2023-02-08T15:38:31.848Z,2.86
2023-02-08T15:41:09.090Z,2.83
2023-02-08T15:43:40.124Z,2.80
2023-02-08T15:46:22.591Z,2.67
2023-02-08T15:48:52.694Z,2.65
2023-02-08T15:51:24.359Z,2.59
2023-02-08T15:53:57.656Z,2.56
2023-02-08T15:56:38.641Z,2.54
2023-02-08T15:59:19.852Z,2.53
2023-02-08T16:01:52.293Z,2.53
2023-02-08T16:04:21.177Z,2.52
2023-02-08T16:06:54.960Z,2.50
2023-02-08T16:09:29.077Z,2.47
2023-02-08T16:12:01.556Z,2.42
2023-02-08T16:14:40.710Z,2.37
2023-02-08T16:17:38.913Z,2.27
2023-02-08T16:20:31.358Z,2.24
2023-02-08T16:23:05.681Z,2.17
2023-02-08T16:25:46.375Z,2.04
2023-02-08T16:28:30.886Z,1.88
2023-02-08T16:31:03.471Z,1.87
2023-02-08T16:33:37.901Z,1.78
2023-02-08T16:36:09.375Z,1.74
2023-02-08T16:38:38.836Z,1.62
2023-02-08T16:41:15.975Z,1.51
2023-02-08T16:43:46.491Z,1.45
2023-02-08T16:46:27.479Z,1.37
2023-02-08T16:48:59.097Z,1.21
2023-02-08T16:51:31.998Z,1.15
2023-02-08T16:54:07.532Z,1.08
2023-02-08T16:56:37.969Z,1.04
2023-02-08T16:59:08.297Z,0.89
2023-02-08T17:01:38.817Z,0.77
2023-02-08T17:04:09.114Z,0.71
2023-02-08T17:06:40.290Z,0.67
2023-02-08T17:09:13.208Z,0.66
2023-02-08T17:11:43.452Z,0.62
2023-02-08T17:14:12.997Z,0.52
2023-02-08T17:16:42.689Z,0.50
2023-02-08T17:19:19.792Z,0.47
2023-02-08T17:21:48.945Z,0.43
2023-02-08T17:24:19.529Z,0.34
2023-02-08T17:26:49.808Z,0.32
2023-02-08T17:29:19.772Z,0.28
2023-02-08T17:31:49.017Z,0.16
2023-02-08T17:34:19.911Z,0.19
2023-02-08T17:36:49.430Z,0.14
2023-02-08T17:39:18.685Z,0.12
2023-02-08T17:41:47.187Z,0.11
2023-02-08T17:44:16.171Z,0.10
2023-02-08T17:46:46.124Z,0.14
2023-02-08T17:49:17.196Z,0.06
2023-02-08T17:51:47.903Z,0.03
2023-02-08T17:54:19.478Z,-0.01
2023-02-08T17:56:48.576Z,-0.10
2023-02-08T17:59:18.123Z,-0.19
2023-02-08T18:01:46.686Z,-0.21
2023-02-08T18:04:16.224Z,-0.27
2023-02-08T18:06:47.269Z,-0.36
2023-02-08T18:09:17.294Z,-0.33
2023-02-08T18:11:47.356Z,-0.30
2023-02-08T18:14:15.892Z,-0.30
2023-02-08T18:16:46.257Z,-0.31
2023-02-08T18:19:15.742Z,-0.26
2023-02-08T18:21:47.055Z,-0.34
2023-02-08T18:24:16.240Z,-0.37
2023-02-08T18:26:45.286Z,-0.37
2023-02-08T18:29:15.740Z,-0.32
2023-02-08T18:31:46.353Z,-0.44
2023-02-08T18:34:16.962Z,-0.56
2023-02-08T18:36:46.955Z,-0.48
2023-02-08T18:39:22.977Z,-0.50
2023-02-08T18:41:53.119Z,-0.52
2023-02-08T18:44:22.502Z,-0.49
2023-02-08T18:46:53.110Z,-0.51
2023-02-08T18:49:23.848Z,-0.55
2023-02-08T18:51:54.141Z,-0.49
2023-02-08T18:54:23.152Z,-0.55
2023-02-08T18:56:56.354Z,-0.60
2023-02-08T18:59:25.699Z,-0.63
2023-02-08T19:01:54.720Z,-0.59
2023-02-08T19:04:23.154Z,-0.64
2023-02-08T19:06:54.853Z,-0.75
2023-02-08T19:09:23.801Z,-0.69
2023-02-08T19:11:52.224Z,-0.71
2023-02-08T19:14:21.697Z,-0.74
2023-02-08T19:16:51.616Z,-0.80
2023-02-08T19:19:21.183Z,-0.85
2023-02-08T19:21:51.912Z,-0.92
2023-02-08T19:24:21.121Z,-0.92
2023-02-08T19:26:50.697Z,-0.92
2023-02-08T19:29:22.427Z,-0.92
2023-02-08T19:31:52.573Z,-0.96
2023-02-08T19:34:22.019Z,-0.98
2023-02-08T19:36:55.691Z,-0.99
2023-02-08T19:39:27.868Z,-1.01
2023-02-08T19:41:58.640Z,-1.07
2023-02-08T19:44:30.456Z,-1.14
2023-02-08T19:47:00.396Z,-1.10
2023-02-08T19:49:29.516Z,-1.15
2023-02-08T19:52:01.125Z,-1.21
2023-02-08T19:54:30.766Z,-1.17
2023-02-08T19:56:59.747Z,-1.21
2023-02-08T19:59:34.212Z,-1.22
2023-02-08T20:02:06.745Z,-1.26
2023-02-08T20:04:36.305Z,-1.29
2023-02-08T20:07:08.212Z,-1.33
2023-02-08T20:09:38.346Z,-1.36
2023-02-08T20:12:08.680Z,-1.32
2023-02-08T20:14:37.747Z,-1.42
2023-02-08T20:17:07.537Z,-1.37
2023-02-08T20:19:39.261Z,-1.42
2023-02-08T20:22:10.647Z,-1.43
2023-02-08T20:24:40.732Z,-1.47
2023-02-08T20:27:10.173Z,-1.52
2023-02-08T20:29:39.718Z,-1.49
2023-02-08T20:32:10.313Z,-1.61
2023-02-08T20:34:47.425Z,-1.57
2023-02-08T20:37:25.452Z,-1.58
2023-02-08T20:39:54.970Z,-1.53
2023-02-08T20:42:25.071Z,-1.58
2023-02-08T20:44:55.096Z,-1.59
2023-02-08T20:47:23.516Z,-1.59
2023-02-08T20:49:52.742Z,-1.59
2023-02-08T20:52:23.568Z,-1.61
2023-02-08T20:54:52.976Z,-1.64
2023-02-08T20:57:21.915Z,-1.72
2023-02-08T20:59:52.222Z,-1.79
2023-02-08T21:02:24.781Z,-1.84
2023-02-08T21:04:54.824Z,-1.85
2023-02-08T21:07:25.620Z,-1.81
2023-02-08T21:09:54.459Z,-1.91
2023-02-08T21:12:23.383Z,-1.89
2023-02-08T21:14:53.634Z,-1.88
2023-02-08T21:17:23.458Z,-1.88
2023-02-08T21:19:53.636Z,-1.96
2023-02-08T21:22:24.929Z,-2.07
2023-02-08T21:24:53.641Z,-2.00
2023-02-08T21:27:24.962Z,-2.06
2023-02-08T21:29:54.461Z,-2.05
2023-02-08T21:32:24.464Z,-2.08
2023-02-08T21:34:53.681Z,-2.10
2023-02-08T21:37:25.244Z,-2.10
2023-02-08T21:39:55.661Z,-2.09
2023-02-08T21:42:26.138Z,-2.10
2023-02-08T21:44:55.651Z,-2.12
2023-02-08T21:47:25.533Z,-2.14
2023-02-08T21:50:12.317Z,-2.19
2023-02-08T21:52:59.698Z,-2.17
2023-02-08T21:55:28.585Z,-2.17
2023-02-08T21:57:57.323Z,-2.16
2023-02-08T22:00:26.855Z,-2.21
2023-02-08T22:02:56.991Z,-2.24
2023-02-08T22:05:26.931Z,-2.25
2023-02-08T22:07:59.385Z,-2.30
2023-02-08T22:10:30.993Z,-2.34
2023-02-08T22:13:01.314Z,-2.38
2023-02-08T22:15:32.023Z,-2.39
2023-02-08T22:18:04.086Z,-2.37
2023-02-08T22:20:33.590Z,-2.37
2023-02-08T22:23:04.304Z,-2.40
2023-02-08T22:25:35.087Z,-2.50
2023-02-08T22:28:05.939Z,-2.46
2023-02-08T22:30:35.737Z,-2.57
2023-02-08T22:33:05.477Z,-2.55
2023-02-08T22:35:34.782Z,-2.51
2023-02-08T22:38:06.061Z,-2.53
2023-02-08T22:40:37.154Z,-2.54
2023-02-08T22:43:06.711Z,-2.60
2023-02-08T22:45:36.589Z,-2.71
2023-02-08T22:48:07.749Z,-2.73
2023-02-08T22:50:38.407Z,-2.81
2023-02-08T22:53:10.303Z,-2.72
2023-02-08T22:55:40.756Z,-2.70
2023-02-08T22:58:11.801Z,-2.70
2023-02-08T23:00:44.970Z,-2.70
2023-02-08T23:03:14.397Z,-2.69
2023-02-08T23:05:43.305Z,-2.82
2023-02-08T23:08:16.256Z,-2.80
2023-02-08T23:10:46.878Z,-2.76
2023-02-08T23:13:17.541Z,-2.80
2023-02-08T23:15:47.377Z,-2.79
2023-02-08T23:18:16.834Z,-2.83
2023-02-08T23:20:47.071Z,-2.92
2023-02-08T23:23:19.037Z,-2.99
2023-02-08T23:25:48.868Z,-2.96
2023-02-08T23:28:17.856Z,-2.97
2023-02-08T23:30:47.072Z,-2.91
2023-02-08T23:33:16.705Z,-2.98
2023-02-08T23:35:46.890Z,-3.10
2023-02-08T23:38:17.205Z,-3.08
2023-02-08T23:40:47.422Z,-3.13
2023-02-08T23:43:18.060Z,-3.11
2023-02-08T23:45:48.127Z,-3.17
2023-02-08T23:48:18.655Z,-3.14
2023-02-08T23:50:48.732Z,-3.09
2023-02-08T23:53:19.965Z,-3.21
2023-02-08T23:55:49.371Z,-3.24
2023-02-08T23:58:19.850Z,-3.33
